Time;durP1;ratioP1;P1;durP2;ratioP2;P2;SDS_P1;SDS_P2;PMS_P1;PMS_P2;Temp;Humidity;BMP_temperature;BMP_pressure;BME280_temperature;BME280_humidity;BME280_pressure;Samples;Min_cycle;Max_cycle;Signal;HPM_P1;HPM_P2
2023/08/04 00:01:30;;;;;;;1.38;0.40;;;;;;;;;;5036153;28;20665;-76
2023/08/04 00:03:56;;;;;;;1.35;0.40;;;;;;;;;;5020998;28;20030;-76
2023/08/04 00:06:21;;;;;;;0.83;0.20;;;;;;;;;;5021266;28;20030;-76
2023/08/04 00:08:46;;;;;;;2.07;0.30;;;;;;;;;;5020430;28;20734;-76
2023/08/04 00:11:11;;;;;;;0.97;0.40;;;;;;;;;;5024854;28;20358;-76
2023/08/04 00:13:36;;;;;;;1.23;0.40;;;;;;;;;;5026372;28;20286;-76
2023/08/04 00:16:08;;;;;;;2.77;0.40;;;;;;;;;;5024788;28;20043;-76
2023/08/04 00:18:34;;;;;;;3.40;0.73;;;;;;;;;;5025795;28;20276;-76
2023/08/04 00:20:59;;;;;;;3.45;0.80;;;;;;;;;;5024383;28;20034;-76
2023/08/04 00:23:24;;;;;;;3.20;0.50;;;;;;;;;;5022737;28;20500;-76
2023/08/04 00:25:49;;;;;;;2.00;0.57;;;;;;;;;;5028024;28;20025;-76
2023/08/04 00:28:15;;;;;;;1.20;0.40;;;;;;;;;;5025089;28;20022;-76
2023/08/04 00:30:40;;;;;;;0.77;0.40;;;;;;;;;;5032592;28;20388;-76
2023/08/04 00:33:05;;;;;;;2.05;0.52;;;;;;;;;;5041028;28;20279;-76
2023/08/04 00:35:30;;;;;;;2.03;0.50;;;;;;;;;;5022994;28;20472;-76
2023/08/04 00:37:56;;;;;;;1.08;0.40;;;;;;;;;;5031960;28;20037;-76
2023/08/04 00:40:21;;;;;;;1.45;0.40;;;;;;;;;;5023234;28;20060;-76
2023/08/04 00:42:46;;;;;;;1.17;0.40;;;;;;;;;;5034227;28;20037;-76
2023/08/04 00:45:11;;;;;;;0.85;0.30;;;;;;;;;;5023353;28;20041;-76
2023/08/04 00:47:38;;;;;;;0.93;0.32;;;;;;;;;;5025837;28;20025;-76
2023/08/04 00:50:04;;;;;;;2.08;0.35;;;;;;;;;;5043049;28;20033;-76
2023/08/04 00:52:30;;;;;;;1.52;0.40;;;;;;;;;;5037694;28;20090;-76
2023/08/04 00:54:55;;;;;;;0.40;0.20;;;;;;;;;;5029755;28;20037;-76
2023/08/04 00:57:20;;;;;;;1.52;0.40;;;;;;;;;;5032206;28;20037;-76
2023/08/04 00:59:45;;;;;;;0.60;0.30;;;;;;;;;;5021786;28;20033;-76
2023/08/04 01:02:11;;;;;;;1.00;0.30;;;;;;;;;;5025553;28;20042;-76
2023/08/04 01:04:36;;;;;;;2.75;0.50;;;;;;;;;;5022518;28;20036;-76
2023/08/04 01:07:09;;;;;;;0.93;0.38;;;;;;;;;;5025346;28;20499;-76
2023/08/04 01:09:55;;;;;;;1.90;0.40;;;;;;;;;;5025228;28;20033;-76
2023/08/04 01:12:30;;;;;;;2.63;0.40;;;;;;;;;;5022566;28;20036;-76
2023/08/04 01:14:56;;;;;;;1.83;0.32;;;;;;;;;;5039148;28;20030;-76
2023/08/04 01:17:28;;;;;;;2.35;0.43;;;;;;;;;;5030990;28;20404;-76
2023/08/04 01:19:54;;;;;;;3.03;0.40;;;;;;;;;;5022067;28;20045;-76
2023/08/04 01:22:20;;;;;;;0.70;0.30;;;;;;;;;;5020869;28;20041;-76
2023/08/04 01:24:45;;;;;;;1.02;0.30;;;;;;;;;;5022299;28;20028;-76
2023/08/04 01:27:14;;;;;;;1.00;0.22;;;;;;;;;;5040090;28;20029;-76
2023/08/04 01:29:43;;;;;;;1.23;0.38;;;;;;;;;;5024589;28;20030;-76
2023/08/04 01:32:08;;;;;;;2.35;0.40;;;;;;;;;;5037398;28;20511;-76
2023/08/04 01:34:34;;;;;;;2.13;0.52;;;;;;;;;;5031489;28;20033;-76
2023/08/04 01:36:59;;;;;;;1.27;0.63;;;;;;;;;;5021755;28;20060;-76
2023/08/04 01:39:25;;;;;;;2.58;0.40;;;;;;;;;;5025682;28;20029;-76
2023/08/04 01:41:50;;;;;;;1.10;0.30;;;;;;;;;;5022322;28;20038;-76
2023/08/04 01:44:16;;;;;;;1.58;0.68;;;;;;;;;;5025266;28;20542;-76
2023/08/04 01:46:43;;;;;;;1.30;0.40;;;;;;;;;;5023685;28;20651;-76
2023/08/04 01:49:09;;;;;;;1.17;0.27;;;;;;;;;;5037243;28;20025;-76
2023/08/04 01:51:35;;;;;;;0.32;0.30;;;;;;;;;;5039722;28;20785;-76
2023/08/04 01:54:00;;;;;;;1.67;0.40;;;;;;;;;;5022820;28;20034;-76
2023/08/04 01:56:25;;;;;;;1.70;0.40;;;;;;;;;;5029345;28;20057;-76
2023/08/04 01:58:52;;;;;;;2.45;0.40;;;;;;;;;;5041771;28;20064;-76
2023/08/04 02:01:17;;;;;;;2.13;0.50;;;;;;;;;;5038158;28;20033;-76
2023/08/04 02:03:42;;;;;;;1.42;0.40;;;;;;;;;;5025775;28;20420;-76
2023/08/04 02:06:08;;;;;;;0.87;0.30;;;;;;;;;;5022879;28;20021;-76
2023/08/04 02:08:33;;;;;;;3.22;0.43;;;;;;;;;;5022971;28;20276;-76
2023/08/04 02:10:59;;;;;;;1.13;0.35;;;;;;;;;;5037176;28;20044;-76
2023/08/04 02:13:24;;;;;;;1.33;0.40;;;;;;;;;;5023139;28;20030;-76
2023/08/04 02:15:49;;;;;;;1.05;0.63;;;;;;;;;;5028704;28;20706;-76
2023/08/04 02:18:14;;;;;;;1.17;0.40;;;;;;;;;;5028206;28;20124;-76
2023/08/04 02:20:40;;;;;;;2.63;0.50;;;;;;;;;;5023160;28;20295;-76
2023/08/04 02:23:05;;;;;;;1.85;0.45;;;;;;;;;;5029716;28;20117;-76
2023/08/04 02:25:31;;;;;;;1.58;0.47;;;;;;;;;;5023229;28;20048;-76
2023/08/04 02:27:56;;;;;;;1.40;0.40;;;;;;;;;;5021218;28;20092;-76
2023/08/04 02:30:21;;;;;;;0.70;0.20;;;;;;;;;;5029755;28;20160;-76
2023/08/04 02:32:46;;;;;;;1.52;0.50;;;;;;;;;;5021168;28;20069;-76
2023/08/04 02:35:11;;;;;;;1.00;0.40;;;;;;;;;;5023752;28;20029;-76
2023/08/04 02:37:37;;;;;;;0.85;0.43;;;;;;;;;;5036453;28;20041;-76
2023/08/04 02:40:02;;;;;;;2.28;0.40;;;;;;;;;;5022743;28;20041;-76
2023/08/04 02:42:27;;;;;;;2.45;0.40;;;;;;;;;;5021143;28;20447;-76
2023/08/04 02:44:54;;;;;;;1.00;0.40;;;;;;;;;;5039765;28;20030;-76
2023/08/04 02:47:19;;;;;;;1.08;0.40;;;;;;;;;;5023097;28;20547;-76
2023/08/04 02:49:44;;;;;;;0.85;0.43;;;;;;;;;;5023200;28;20030;-76
2023/08/04 02:52:14;;;;;;;2.45;0.60;;;;;;;;;;5029075;28;20038;-76
2023/08/04 02:54:39;;;;;;;1.10;0.60;;;;;;;;;;5020301;28;20029;-76
2023/08/04 02:57:05;;;;;;;3.60;0.68;;;;;;;;;;5029946;28;20588;-76
2023/08/04 02:59:30;;;;;;;2.00;0.40;;;;;;;;;;5025202;28;20377;-76
2023/08/04 03:01:55;;;;;;;2.23;0.63;;;;;;;;;;5029624;28;20511;-76
2023/08/04 03:04:20;;;;;;;1.00;0.30;;;;;;;;;;5020322;28;20280;-76
2023/08/04 03:06:46;;;;;;;5.55;0.80;;;;;;;;;;5023156;28;20025;-76
2023/08/04 03:09:11;;;;;;;1.35;0.52;;;;;;;;;;5019818;28;20084;-76
2023/08/04 03:11:36;;;;;;;2.67;0.57;;;;;;;;;;5023088;28;20107;-76
2023/08/04 03:14:02;;;;;;;0.98;0.52;;;;;;;;;;5021138;28;20420;-76
2023/08/04 03:16:27;;;;;;;1.38;0.60;;;;;;;;;;5030010;28;20029;-77
2023/08/04 03:18:52;;;;;;;3.20;0.70;;;;;;;;;;5026680;28;20030;-77
2023/08/04 03:21:18;;;;;;;2.77;0.80;;;;;;;;;;5032518;28;20294;-77
2023/08/04 03:23:43;;;;;;;2.53;1.02;;;;;;;;;;5030912;28;20280;-78
2023/08/04 03:26:08;;;;;;;2.38;1.00;;;;;;;;;;5031487;28;20021;-78
2023/08/04 03:28:33;;;;;;;3.33;1.13;;;;;;;;;;5029881;28;20025;-77
2023/08/04 03:30:58;;;;;;;2.38;1.20;;;;;;;;;;5034795;28;20041;-78
2023/08/04 03:33:24;;;;;;;3.97;0.85;;;;;;;;;;5033508;28;20083;-78
2023/08/04 03:35:49;;;;;;;3.05;1.40;;;;;;;;;;5038766;28;20064;-78
2023/08/04 03:38:14;;;;;;;2.90;1.33;;;;;;;;;;5045904;28;20083;-79
2023/08/04 03:40:40;;;;;;;2.40;0.98;;;;;;;;;;5025026;28;20700;-78
2023/08/04 03:43:05;;;;;;;3.30;1.30;;;;;;;;;;5037787;28;20516;-79
2023/08/04 03:45:30;;;;;;;2.83;1.25;;;;;;;;;;5029148;28;20084;-78
2023/08/04 03:47:56;;;;;;;1.88;0.95;;;;;;;;;;5032930;28;20025;-78
2023/08/04 03:50:22;;;;;;;2.17;1.10;;;;;;;;;;5032827;28;20034;-79
2023/08/04 03:52:48;;;;;;;2.67;1.00;;;;;;;;;;5033344;28;20033;-79
2023/08/04 03:55:13;;;;;;;3.03;1.65;;;;;;;;;;5029646;28;20034;-79
2023/08/04 03:57:38;;;;;;;2.50;1.15;;;;;;;;;;5030716;28;20030;-79
2023/08/04 04:00:04;;;;;;;2.50;1.33;;;;;;;;;;5027086;28;20059;-78
2023/08/04 04:02:37;;;;;;;2.88;1.05;;;;;;;;;;5028969;28;20029;-79
2023/08/04 04:05:02;;;;;;;2.38;1.10;;;;;;;;;;5029287;28;20400;-78
2023/08/04 04:07:28;;;;;;;2.50;1.27;;;;;;;;;;5030441;28;20042;-79
2023/08/04 04:09:53;;;;;;;1.35;0.95;;;;;;;;;;5025234;28;20049;-79
2023/08/04 04:12:18;;;;;;;3.20;1.30;;;;;;;;;;5028561;28;20107;-79
2023/08/04 04:14:43;;;;;;;2.65;1.30;;;;;;;;;;5033664;28;20093;-79
2023/08/04 04:17:09;;;;;;;4.20;1.00;;;;;;;;;;5031690;28;20086;-79
2023/08/04 04:19:34;;;;;;;3.20;1.00;;;;;;;;;;5029411;28;20272;-79
2023/08/04 04:21:59;;;;;;;2.23;1.50;;;;;;;;;;5030701;28;20386;-79
2023/08/04 04:24:24;;;;;;;2.77;0.93;;;;;;;;;;5036286;28;20342;-79
2023/08/04 04:26:49;;;;;;;3.30;1.30;;;;;;;;;;5028769;28;20295;-79
2023/08/04 04:29:15;;;;;;;3.60;1.50;;;;;;;;;;5024574;28;20264;-79
2023/08/04 04:31:40;;;;;;;2.95;1.20;;;;;;;;;;5036150;28;20318;-79
2023/08/04 04:34:05;;;;;;;1.92;1.10;;;;;;;;;;5032075;28;20125;-78
2023/08/04 04:36:30;;;;;;;2.78;1.30;;;;;;;;;;5031417;28;20034;-79
2023/08/04 04:38:55;;;;;;;1.73;0.82;;;;;;;;;;5032819;28;20037;-78
2023/08/04 04:41:21;;;;;;;1.92;1.10;;;;;;;;;;5027412;28;21021;-77
2023/08/04 04:43:46;;;;;;;2.63;1.20;;;;;;;;;;5026082;28;20018;-77
2023/08/04 04:46:11;;;;;;;3.13;1.17;;;;;;;;;;5025003;28;20091;-77
2023/08/04 04:48:37;;;;;;;2.17;1.02;;;;;;;;;;5030183;28;20041;-79
2023/08/04 04:51:02;;;;;;;3.20;1.67;;;;;;;;;;5024250;28;20033;-79
2023/08/04 04:53:27;;;;;;;8.05;2.65;;;;;;;;;;5020555;28;20029;-79
2023/08/04 04:55:52;;;;;;;3.40;1.60;;;;;;;;;;5032076;28;20036;-79
2023/08/04 04:58:18;;;;;;;3.97;1.50;;;;;;;;;;5035340;28;20041;-79
2023/08/04 05:00:43;;;;;;;2.73;1.50;;;;;;;;;;5029954;28;20037;-79
2023/08/04 05:03:10;;;;;;;3.10;1.80;;;;;;;;;;5035567;28;20283;-79
2023/08/04 05:05:36;;;;;;;2.75;1.38;;;;;;;;;;5032938;28;20026;-79
2023/08/04 05:08:01;;;;;;;3.50;1.80;;;;;;;;;;5038765;28;20049;-79
2023/08/04 05:10:26;;;;;;;2.38;1.35;;;;;;;;;;5030603;28;20522;-79
2023/08/04 05:12:52;;;;;;;3.05;1.75;;;;;;;;;;5048763;28;20404;-79
2023/08/04 05:15:17;;;;;;;2.20;1.27;;;;;;;;;;5038277;28;20037;-79
2023/08/04 05:17:42;;;;;;;2.83;1.40;;;;;;;;;;5034325;28;20577;-79
2023/08/04 05:20:08;;;;;;;2.33;1.23;;;;;;;;;;5029165;28;20493;-79
2023/08/04 05:22:33;;;;;;;2.78;1.30;;;;;;;;;;5031976;28;20299;-79
2023/08/04 05:24:58;;;;;;;2.85;1.73;;;;;;;;;;5029817;28;20026;-79
2023/08/04 05:27:23;;;;;;;3.30;1.50;;;;;;;;;;5028724;28;20029;-79
2023/08/04 05:29:48;;;;;;;2.83;1.40;;;;;;;;;;5029044;28;20346;-79
2023/08/04 05:32:14;;;;;;;2.58;1.20;;;;;;;;;;5031637;28;20320;-79
2023/08/04 05:34:39;;;;;;;2.88;1.60;;;;;;;;;;5037176;28;20060;-79
2023/08/04 05:37:04;;;;;;;2.17;1.27;;;;;;;;;;5029236;28;20042;-79
2023/08/04 05:39:29;;;;;;;2.30;1.33;;;;;;;;;;5029849;28;20310;-79
2023/08/04 05:41:54;;;;;;;3.17;2.05;;;;;;;;;;5037197;28;20571;-79
2023/08/04 05:44:22;;;;;;;3.20;1.70;;;;;;;;;;5036370;28;20037;-79
2023/08/04 05:46:47;;;;;;;3.50;2.00;;;;;;;;;;5032103;28;20544;-79
2023/08/04 05:49:12;;;;;;;4.60;2.10;;;;;;;;;;5033456;28;20080;-79
2023/08/04 05:51:37;;;;;;;2.42;1.48;;;;;;;;;;5037199;28;20122;-79
2023/08/04 05:54:03;;;;;;;3.47;2.00;;;;;;;;;;5034174;28;20029;-79
2023/08/04 05:56:28;;;;;;;3.80;1.60;;;;;;;;;;5032615;28;20330;-79
2023/08/04 05:58:53;;;;;;;5.90;1.93;;;;;;;;;;5031746;28;20077;-79
2023/08/04 06:01:18;;;;;;;3.08;1.50;;;;;;;;;;5027417;28;20288;-79
2023/08/04 06:03:43;;;;;;;5.15;2.22;;;;;;;;;;5031322;28;20052;-79
2023/08/04 06:06:09;;;;;;;3.63;2.00;;;;;;;;;;5028078;28;20041;-79
2023/08/04 06:08:34;;;;;;;6.07;2.08;;;;;;;;;;5044946;28;20168;-79
2023/08/04 06:10:59;;;;;;;4.50;2.63;;;;;;;;;;5026430;28;20043;-79
2023/08/04 06:13:24;;;;;;;7.03;2.95;;;;;;;;;;5026621;28;20026;-78
2023/08/04 06:15:50;;;;;;;3.30;2.40;;;;;;;;;;5035065;28;20033;-78
2023/08/04 06:18:15;;;;;;;5.47;2.63;;;;;;;;;;5025840;28;20284;-79
2023/08/04 06:20:40;;;;;;;3.80;2.05;;;;;;;;;;5034611;28;20025;-78
2023/08/04 06:23:06;;;;;;;5.35;2.88;;;;;;;;;;5031179;28;20034;-78
2023/08/04 06:25:31;;;;;;;4.65;2.40;;;;;;;;;;5042746;28;20113;-79
2023/08/04 06:27:57;;;;;;;4.50;2.05;;;;;;;;;;5024128;28;20564;-79
2023/08/04 06:30:22;;;;;;;5.82;2.35;;;;;;;;;;5042501;28;20030;-79
2023/08/04 06:32:48;;;;;;;5.50;2.53;;;;;;;;;;5024451;28;20385;-78
2023/08/04 06:35:13;;;;;;;6.13;2.55;;;;;;;;;;5031144;28;20132;-79
2023/08/04 06:37:38;;;;;;;7.35;2.60;;;;;;;;;;5027196;28;20033;-78
2023/08/04 06:40:04;;;;;;;5.63;3.00;;;;;;;;;;5027369;28;20512;-79
2023/08/04 06:42:30;;;;;;;5.13;2.40;;;;;;;;;;5028169;28;20042;-78
2023/08/04 06:44:55;;;;;;;5.00;2.20;;;;;;;;;;5027747;28;20027;-79
2023/08/04 06:47:20;;;;;;;5.10;2.88;;;;;;;;;;5030819;28;20025;-78
2023/08/04 06:49:45;;;;;;;6.32;2.97;;;;;;;;;;5030009;28;20017;-78
2023/08/04 06:52:10;;;;;;;5.67;3.17;;;;;;;;;;5036247;28;20032;-79
2023/08/04 06:54:36;;;;;;;5.53;2.72;;;;;;;;;;5023098;28;20273;-79
2023/08/04 06:57:01;;;;;;;7.63;2.80;;;;;;;;;;5030590;28;20056;-78
2023/08/04 06:59:26;;;;;;;5.88;2.72;;;;;;;;;;5027256;28;20040;-79
2023/08/04 07:01:52;;;;;;;9.52;2.65;;;;;;;;;;5022873;28;20033;-78
2023/08/04 07:04:17;;;;;;;5.03;2.33;;;;;;;;;;5026041;28;20034;-78
2023/08/04 07:06:42;;;;;;;5.03;2.53;;;;;;;;;;5022514;28;20506;-78
2023/08/04 07:09:07;;;;;;;5.78;2.50;;;;;;;;;;5024042;28;20345;-78
2023/08/04 07:11:32;;;;;;;4.70;2.40;;;;;;;;;;5028506;28;20040;-78
2023/08/04 07:13:58;;;;;;;7.35;2.55;;;;;;;;;;5024684;28;20268;-78
2023/08/04 07:16:23;;;;;;;7.77;3.40;;;;;;;;;;5022232;28;20495;-78
2023/08/04 07:18:49;;;;;;;6.10;2.80;;;;;;;;;;5023453;28;20354;-79
2023/08/04 07:21:14;;;;;;;6.53;2.58;;;;;;;;;;5027159;28;20036;-78
2023/08/04 07:23:39;;;;;;;5.22;2.30;;;;;;;;;;5021417;28;20045;-78
2023/08/04 07:26:05;;;;;;;6.95;2.42;;;;;;;;;;5027920;28;20108;-78
2023/08/04 07:28:31;;;;;;;7.75;2.63;;;;;;;;;;5024858;28;20030;-78
2023/08/04 07:30:59;;;;;;;7.10;2.38;;;;;;;;;;5028703;28;20033;-78
2023/08/04 07:33:24;;;;;;;4.03;2.08;;;;;;;;;;5039017;28;20033;-78
2023/08/04 07:35:54;;;;;;;9.13;2.53;;;;;;;;;;5026493;28;20454;-78
2023/08/04 07:38:20;;;;;;;6.18;2.60;;;;;;;;;;5025587;28;20110;-78
2023/08/04 07:40:45;;;;;;;10.40;2.92;;;;;;;;;;5022079;28;20076;-78
2023/08/04 07:43:11;;;;;;;7.88;3.00;;;;;;;;;;5024281;28;20036;-78
2023/08/04 07:45:37;;;;;;;5.60;2.47;;;;;;;;;;5022983;28;20034;-78
2023/08/04 07:48:02;;;;;;;8.90;2.83;;;;;;;;;;5025697;28;20405;-78
2023/08/04 07:50:27;;;;;;;8.02;2.30;;;;;;;;;;5026928;28;20096;-78
2023/08/04 07:52:53;;;;;;;4.07;2.10;;;;;;;;;;5046598;28;20041;-78
2023/08/04 07:55:18;;;;;;;6.63;2.70;;;;;;;;;;5024214;28;20283;-78
2023/08/04 07:57:43;;;;;;;4.83;2.50;;;;;;;;;;5022047;28;20296;-78
2023/08/04 08:00:09;;;;;;;3.93;2.30;;;;;;;;;;5024773;28;20687;-79
2023/08/04 08:02:34;;;;;;;4.72;2.28;;;;;;;;;;5023736;28;20279;-78
2023/08/04 08:05:00;;;;;;;6.88;2.10;;;;;;;;;;5037464;28;20038;-78
2023/08/04 08:07:25;;;;;;;5.13;2.37;;;;;;;;;;5024695;28;20037;-78
2023/08/04 08:09:50;;;;;;;5.90;2.40;;;;;;;;;;5024475;28;20358;-78
2023/08/04 08:12:15;;;;;;;7.07;2.70;;;;;;;;;;5022202;28;20393;-78
2023/08/04 08:14:41;;;;;;;6.30;2.33;;;;;;;;;;5025492;28;20026;-78
2023/08/04 08:17:06;;;;;;;10.70;4.38;;;;;;;;;;5021407;28;20629;-78
2023/08/04 08:19:31;;;;;;;8.98;2.90;;;;;;;;;;5023551;28;20060;-78
2023/08/04 08:21:56;;;;;;;7.57;3.10;;;;;;;;;;5025845;28;20041;-76
2023/08/04 08:24:22;;;;;;;6.43;2.78;;;;;;;;;;5026408;28;20296;-77
2023/08/04 08:26:47;;;;;;;9.00;2.42;;;;;;;;;;5019043;28;20481;-76
2023/08/04 08:29:12;;;;;;;6.07;2.30;;;;;;;;;;5022983;28;20530;-77
2023/08/04 08:31:38;;;;;;;5.17;2.37;;;;;;;;;;5029830;28;20288;-76
2023/08/04 08:34:03;;;;;;;5.57;1.95;;;;;;;;;;5029532;28;20275;-77
2023/08/04 08:36:29;;;;;;;5.30;1.83;;;;;;;;;;5024760;28;20050;-76
2023/08/04 08:38:54;;;;;;;6.57;2.58;;;;;;;;;;5028464;28;20021;-77
2023/08/04 08:41:21;;;;;;;6.00;2.20;;;;;;;;;;5029564;28;20506;-76
2023/08/04 08:43:48;;;;;;;6.63;2.70;;;;;;;;;;5029207;28;20109;-76
2023/08/04 08:46:13;;;;;;;4.38;1.98;;;;;;;;;;5028935;28;20029;-76
2023/08/04 08:48:42;;;;;;;5.63;2.13;;;;;;;;;;5026359;28;20047;-77
2023/08/04 08:51:11;;;;;;;6.25;2.38;;;;;;;;;;5024905;28;20062;-76
2023/08/04 08:53:36;;;;;;;5.68;2.00;;;;;;;;;;5026390;28;20029;-77
2023/08/04 08:56:02;;;;;;;6.82;2.38;;;;;;;;;;5030875;28;20040;-77
2023/08/04 08:58:28;;;;;;;6.07;2.47;;;;;;;;;;5029838;28;20029;-77
2023/08/04 09:00:54;;;;;;;7.85;2.15;;;;;;;;;;5027475;28;20034;-77
2023/08/04 09:03:19;;;;;;;9.60;2.47;;;;;;;;;;5023327;28;20509;-77
2023/08/04 09:05:44;;;;;;;9.70;2.28;;;;;;;;;;5025754;28;20067;-77
2023/08/04 09:08:09;;;;;;;6.07;2.33;;;;;;;;;;5038597;28;20052;-76
2023/08/04 09:10:37;;;;;;;7.57;2.42;;;;;;;;;;5030162;28;20273;-77
2023/08/04 09:13:06;;;;;;;5.95;2.53;;;;;;;;;;5029902;28;20028;-77
2023/08/04 09:15:46;;;;;;;7.35;2.60;;;;;;;;;;5026358;28;20427;-77
2023/08/04 09:18:22;;;;;;;8.82;2.55;;;;;;;;;;5024886;28;20029;-77
2023/08/04 09:20:48;;;;;;;5.60;2.60;;;;;;;;;;5039171;28;20440;-76
2023/08/04 09:23:13;;;;;;;8.93;2.37;;;;;;;;;;5041254;28;20116;-76
2023/08/04 09:25:50;;;;;;;7.57;2.00;;;;;;;;;;5024413;28;20272;-76
2023/08/04 09:28:15;;;;;;;5.68;2.72;;;;;;;;;;5025594;28;20036;-77
2023/08/04 09:30:58;;;;;;;6.80;2.42;;;;;;;;;;5022207;28;20034;-77
2023/08/04 09:33:24;;;;;;;5.55;2.50;;;;;;;;;;5021618;28;20058;-76
2023/08/04 09:35:49;;;;;;;6.00;2.97;;;;;;;;;;5032050;28;20072;-76
2023/08/04 09:38:14;;;;;;;9.63;2.73;;;;;;;;;;5040799;28;20076;-77
2023/08/04 09:40:40;;;;;;;6.40;2.03;;;;;;;;;;5028577;23;20321;-73
2023/08/04 09:43:05;;;;;;;6.05;2.70;;;;;;;;;;5005084;28;20029;-73
2023/08/04 09:45:32;;;;;;;4.45;1.90;;;;;;;;;;5004753;28;20035;-74
2023/08/04 09:47:57;;;;;;;7.00;2.33;;;;;;;;;;5005717;28;20034;-74
2023/08/04 09:50:23;;;;;;;6.53;2.23;;;;;;;;;;5007202;28;20037;-73
2023/08/04 09:53:00;;;;;;;5.53;2.53;;;;;;;;;;5013018;28;20287;-72
2023/08/04 09:55:25;;;;;;;7.50;2.10;;;;;;;;;;5005852;28;20040;-73
2023/08/04 09:57:51;;;;;;;7.18;2.63;;;;;;;;;;5005605;28;20034;-73
2023/08/04 10:00:16;;;;;;;5.55;1.80;;;;;;;;;;5020800;28;20046;-73
2023/08/04 10:02:45;;;;;;;7.97;3.15;;;;;;;;;;5002871;28;20067;-74
2023/08/04 10:05:11;;;;;;;6.38;2.40;;;;;;;;;;5011467;28;20147;-72
2023/08/04 10:07:36;;;;;;;4.97;2.47;;;;;;;;;;5005100;28;20037;-73
2023/08/04 10:10:04;;;;;;;6.32;2.78;;;;;;;;;;5003713;28;20038;-74
2023/08/04 10:12:30;;;;;;;5.97;2.30;;;;;;;;;;5003314;28;20054;-73
2023/08/04 10:14:55;;;;;;;5.25;2.00;;;;;;;;;;5006413;28;20037;-73
2023/08/04 10:17:21;;;;;;;4.65;1.83;;;;;;;;;;5004912;28;20401;-74
2023/08/04 10:19:46;;;;;;;5.50;1.65;;;;;;;;;;5004140;28;20052;-74
2023/08/04 10:22:11;;;;;;;6.40;1.60;;;;;;;;;;5010659;28;20110;-74
2023/08/04 10:24:39;;;;;;;4.13;1.58;;;;;;;;;;5005966;28;20030;-74
2023/08/04 10:27:12;;;;;;;4.35;1.60;;;;;;;;;;5008538;28;20030;-73
2023/08/04 10:29:37;;;;;;;6.03;1.95;;;;;;;;;;5002757;28;20026;-74
2023/08/04 10:32:07;;;;;;;5.32;1.52;;;;;;;;;;5004649;28;20034;-73
2023/08/04 10:34:42;;;;;;;5.15;1.95;;;;;;;;;;5002347;28;20034;-73
2023/08/04 10:37:14;;;;;;;7.13;1.85;;;;;;;;;;5007786;28;20378;-73
2023/08/04 10:39:56;;;;;;;3.20;1.30;;;;;;;;;;5002801;28;20386;-73
2023/08/04 10:42:21;;;;;;;;;;;;;;;;;;5004941;28;20034;-74
2023/08/04 10:44:54;;;;;;;5.47;2.13;;;;;;;;;;5001421;28;20291;-73
2023/08/04 10:47:39;;;;;;;4.03;1.95;;;;;;;;;;5000771;28;20031;-73
2023/08/04 10:50:05;;;;;;;4.43;2.08;;;;;;;;;;5004964;28;20454;-73
2023/08/04 10:52:31;;;;;;;7.32;2.60;;;;;;;;;;5007771;28;20038;-74
2023/08/04 10:54:57;;;;;;;4.88;1.98;;;;;;;;;;5006786;28;20046;-74
2023/08/04 10:57:23;;;;;;;5.60;2.20;;;;;;;;;;5004081;28;20042;-73
2023/08/04 10:59:49;;;;;;;4.90;1.98;;;;;;;;;;4999735;28;20061;-74
2023/08/04 11:02:18;;;;;;;4.97;2.38;;;;;;;;;;5004345;28;20485;-76
2023/08/04 11:04:45;;;;;;;4.88;2.35;;;;;;;;;;5007932;28;20040;-75
2023/08/04 11:07:10;;;;;;;4.93;2.05;;;;;;;;;;5003465;28;20048;-76
2023/08/04 11:09:35;;;;;;;7.40;2.30;;;;;;;;;;5000315;28;20541;-75
2023/08/04 11:12:03;;;;;;;6.63;1.75;;;;;;;;;;5003039;28;20512;-76
2023/08/04 11:14:28;;;;;;;6.22;1.90;;;;;;;;;;5006959;28;20034;-76
2023/08/04 11:16:58;;;;;;;4.55;1.63;;;;;;;;;;5010257;28;20034;-76
2023/08/04 11:19:23;;;;;;;6.75;1.63;;;;;;;;;;5003826;28;20038;-76
2023/08/04 11:21:49;;;;;;;3.20;1.40;;;;;;;;;;5007796;28;20041;-76
2023/08/04 11:24:14;;;;;;;2.47;1.02;;;;;;;;;;5004013;28;20400;-76
2023/08/04 11:26:40;;;;;;;3.00;1.07;;;;;;;;;;5002169;28;20050;-75
2023/08/04 11:29:05;;;;;;;4.57;1.17;;;;;;;;;;5000368;28;20782;-76
2023/08/04 11:31:33;;;;;;;2.50;1.07;;;;;;;;;;5020699;28;20854;-76
2023/08/04 11:33:58;;;;;;;3.28;1.13;;;;;;;;;;5009378;28;20315;-76
2023/08/04 11:36:24;;;;;;;2.35;1.15;;;;;;;;;;5002997;28;20027;-76
2023/08/04 11:38:49;;;;;;;2.67;1.20;;;;;;;;;;5001182;28;20026;-76
2023/08/04 11:41:15;;;;;;;1.85;1.08;;;;;;;;;;5001870;28;20409;-76
2023/08/04 11:43:41;;;;;;;2.58;1.05;;;;;;;;;;5009635;28;20405;-76
2023/08/04 11:46:07;;;;;;;3.25;0.95;;;;;;;;;;5006564;28;20026;-75
2023/08/04 11:48:35;;;;;;;3.47;1.30;;;;;;;;;;5005700;28;20026;-76
2023/08/04 11:51:01;;;;;;;5.18;1.83;;;;;;;;;;5001462;28;20030;-76
2023/08/04 11:53:26;;;;;;;3.70;1.20;;;;;;;;;;5001298;28;20042;-76
2023/08/04 11:55:56;;;;;;;2.78;1.17;;;;;;;;;;5003527;28;20396;-76
2023/08/04 11:58:28;;;;;;;2.25;1.05;;;;;;;;;;4999199;28;20125;-76
2023/08/04 12:00:53;;;;;;;3.72;1.13;;;;;;;;;;5000895;28;20037;-76
2023/08/04 12:03:18;;;;;;;3.23;1.10;;;;;;;;;;5008294;28;20038;-76
2023/08/04 12:05:43;;;;;;;3.43;1.43;;;;;;;;;;5003093;28;20285;-76
2023/08/04 12:08:10;;;;;;;4.00;0.93;;;;;;;;;;5005252;28;20294;-76
2023/08/04 12:10:37;;;;;;;5.22;1.40;;;;;;;;;;5010963;28;20636;-76
2023/08/04 12:13:02;;;;;;;3.70;0.90;;;;;;;;;;5009318;28;20034;-76
2023/08/04 12:15:27;;;;;;;3.67;1.13;;;;;;;;;;5017623;28;20177;-76
2023/08/04 12:17:52;;;;;;;3.53;1.10;;;;;;;;;;5007411;28;20038;-75
2023/08/04 12:20:18;;;;;;;3.45;0.93;;;;;;;;;;5008802;28;20786;-76
2023/08/04 12:22:44;;;;;;;3.65;1.30;;;;;;;;;;5009723;28;20034;-76
2023/08/04 12:25:09;;;;;;;5.20;2.13;;;;;;;;;;5011400;28;20030;-76
2023/08/04 12:27:35;;;;;;;4.35;1.55;;;;;;;;;;5010374;28;20037;-75
2023/08/04 12:30:01;;;;;;;3.33;1.45;;;;;;;;;;5005174;28;20076;-76
2023/08/04 12:32:27;;;;;;;4.88;1.35;;;;;;;;;;5004200;28;20042;-76
2023/08/04 12:34:52;;;;;;;4.38;2.03;;;;;;;;;;5004809;28;20404;-76
2023/08/04 12:37:17;;;;;;;3.53;1.55;;;;;;;;;;5006722;28;20034;-75
2023/08/04 12:39:45;;;;;;;2.58;1.30;;;;;;;;;;5017820;28;20559;-76
2023/08/04 12:42:11;;;;;;;3.03;1.20;;;;;;;;;;5006598;28;20643;-76
2023/08/04 12:44:36;;;;;;;3.40;1.27;;;;;;;;;;5017954;28;20041;-76
2023/08/04 12:47:02;;;;;;;2.95;1.42;;;;;;;;;;5010061;28;20280;-75
2023/08/04 12:49:27;;;;;;;3.17;1.50;;;;;;;;;;5005772;28;20045;-76
2023/08/04 12:51:52;;;;;;;3.13;1.33;;;;;;;;;;5010502;28;20038;-76
2023/08/04 12:54:18;;;;;;;3.07;1.30;;;;;;;;;;5006391;28;20276;-76
2023/08/04 12:56:43;;;;;;;4.10;1.63;;;;;;;;;;5002859;28;20634;-76
2023/08/04 12:59:08;;;;;;;3.47;1.77;;;;;;;;;;5005578;28;20121;-75
2023/08/04 13:01:33;;;;;;;4.50;1.77;;;;;;;;;;5006356;28;20329;-75
2023/08/04 13:03:58;;;;;;;3.57;1.60;;;;;;;;;;5005763;28;20275;-76
2023/08/04 13:06:24;;;;;;;4.97;1.50;;;;;;;;;;5003252;28;20752;-76
2023/08/04 13:08:49;;;;;;;2.80;1.40;;;;;;;;;;5004911;28;20280;-76
2023/08/04 13:11:14;;;;;;;4.05;2.60;;;;;;;;;;5002854;28;20273;-76
2023/08/04 13:13:39;;;;;;;3.03;1.20;;;;;;;;;;5005566;28;20401;-77
2023/08/04 13:16:04;;;;;;;3.07;1.33;;;;;;;;;;5003031;28;20776;-77
2023/08/04 13:18:30;;;;;;;1.70;1.00;;;;;;;;;;5004715;28;20296;-76
2023/08/04 13:20:55;;;;;;;2.22;1.05;;;;;;;;;;5005649;28;20072;-76
2023/08/04 13:23:20;;;;;;;3.33;1.70;;;;;;;;;;5009227;28;20030;-77
2023/08/04 13:25:45;;;;;;;3.47;1.30;;;;;;;;;;5005161;28;20670;-76
2023/08/04 13:28:11;;;;;;;2.40;1.33;;;;;;;;;;5005743;28;20265;-76
2023/08/04 13:30:36;;;;;;;3.80;1.50;;;;;;;;;;5002233;28;20274;-75
2023/08/04 13:33:01;;;;;;;2.80;1.10;;;;;;;;;;5004926;28;20038;-76
2023/08/04 13:35:27;;;;;;;3.95;1.48;;;;;;;;;;5002930;28;20286;-77
2023/08/04 13:37:52;;;;;;;3.65;1.60;;;;;;;;;;5004518;28;20451;-77
2023/08/04 13:40:17;;;;;;;3.17;1.40;;;;;;;;;;5003748;28;20042;-76
2023/08/04 13:42:43;;;;;;;2.03;1.17;;;;;;;;;;5004944;28;20029;-76
2023/08/04 13:45:08;;;;;;;2.28;1.17;;;;;;;;;;5007958;28;20033;-75
2023/08/04 13:47:33;;;;;;;1.88;1.02;;;;;;;;;;5010506;28;20505;-76
2023/08/04 13:49:59;;;;;;;2.72;1.45;;;;;;;;;;5007508;28;20030;-76
2023/08/04 13:52:24;;;;;;;3.38;1.67;;;;;;;;;;5010813;28;20038;-76
2023/08/04 13:54:49;;;;;;;1.87;0.90;;;;;;;;;;5007782;28;20114;-76
2023/08/04 13:57:14;;;;;;;2.20;1.20;;;;;;;;;;5001269;28;20320;-76
2023/08/04 13:59:41;;;;;;;2.73;1.13;;;;;;;;;;5010116;28;20328;-77
2023/08/04 14:02:06;;;;;;;2.22;1.00;;;;;;;;;;5004150;28;20068;-75
2023/08/04 14:04:31;;;;;;;1.85;0.65;;;;;;;;;;5003180;28;20061;-77
2023/08/04 14:06:57;;;;;;;3.70;1.43;;;;;;;;;;5006625;28;20486;-76
2023/08/04 14:09:23;;;;;;;1.30;0.63;;;;;;;;;;5010138;28;20034;-76
2023/08/04 14:11:48;;;;;;;2.08;0.80;;;;;;;;;;5010923;28;20038;-77
2023/08/04 14:14:13;;;;;;;2.43;1.20;;;;;;;;;;5006416;28;20065;-76
2023/08/04 14:16:38;;;;;;;2.50;1.17;;;;;;;;;;5003949;28;20289;-76
2023/08/04 14:19:04;;;;;;;2.30;0.90;;;;;;;;;;5003549;28;20053;-76
2023/08/04 14:21:29;;;;;;;1.77;0.80;;;;;;;;;;5009958;28;20055;-76
2023/08/04 14:23:54;;;;;;;3.10;1.00;;;;;;;;;;5002398;28;20357;-76
2023/08/04 14:26:19;;;;;;;2.08;0.80;;;;;;;;;;5006356;28;20042;-76
2023/08/04 14:28:45;;;;;;;0.97;0.70;;;;;;;;;;5002892;28;20030;-76
2023/08/04 14:31:10;;;;;;;2.03;0.70;;;;;;;;;;5004624;28;20050;-76
2023/08/04 14:33:35;;;;;;;2.03;0.60;;;;;;;;;;5003536;28;20036;-75
2023/08/04 14:36:01;;;;;;;2.67;1.00;;;;;;;;;;5001840;28;20042;-76